Time;durP1;ratioP1;P1;durP2;ratioP2;P2;SDS_P1;SDS_P2;PMS_P1;PMS_P2;Temp;Humidity;BMP_temperature;BMP_pressure;BME280_temperature;BME280_humidity;BME280_pressure;Samples;Min_cycle;Max_cycle;Signal;HPM_P1;HPM_P2
2022/01/16 00:00:25;;;;;;;75.25;33.42;;;3.70;89.70;;;;;;4995701;28;20038;-91
2022/01/16 00:05:20;;;;;;;69.82;31.52;;;3.70;89.40;;;;;;5022566;28;20026;-90
2022/01/16 00:07:46;;;;;;;69.00;30.75;;;3.60;89.20;;;;;;4962746;28;20428;-90
2022/01/16 00:10:12;;;;;;;71.97;32.30;;;3.50;89.20;;;;;;4965671;28;20030;-90
2022/01/16 00:12:37;;;;;;;68.68;30.55;;;3.50;89.30;;;;;;4981178;28;20025;-90
2022/01/16 00:15:05;;;;;;;71.75;31.92;;;3.50;89.50;;;;;;4960343;28;20031;-91
2022/01/16 00:17:35;;;;;;;66.45;30.75;;;3.50;89.40;;;;;;4968962;28;20137;-91
2022/01/16 00:20:01;;;;;;;78.85;32.10;;;3.50;89.30;;;;;;4980969;28;20038;-91
2022/01/16 00:22:32;;;;;;;65.93;30.63;;;3.60;89.40;;;;;;4996827;28;20531;-92
2022/01/16 00:25:02;;;;;;;63.95;30.17;;;3.60;89.40;;;;;;4964482;28;20046;-92
2022/01/16 00:27:27;;;;;;;75.70;30.73;;;3.50;89.40;;;;;;4965176;28;20053;-92
2022/01/16 00:29:53;;;;;;;66.72;30.35;;;3.50;89.40;;;;;;4963434;28;20029;-91
2022/01/16 00:32:19;;;;;;;71.93;32.53;;;3.50;89.40;;;;;;4995489;28;20034;-92
2022/01/16 00:34:45;;;;;;;72.90;31.92;;;3.50;89.50;;;;;;4984544;28;20080;-92
2022/01/16 00:37:10;;;;;;;71.35;31.48;;;3.50;89.60;;;;;;4963400;28;20069;-91
2022/01/16 00:39:36;;;;;;;71.88;33.30;;;3.50;89.50;;;;;;4978710;28;20105;-90
2022/01/16 00:42:02;;;;;;;68.53;32.03;;;3.50;89.50;;;;;;4963095;28;20034;-90
2022/01/16 00:44:28;;;;;;;76.60;32.70;;;3.50;89.50;;;;;;4962654;28;20124;-90
2022/01/16 00:46:53;;;;;;;67.75;30.17;;;3.50;89.60;;;;;;4978432;28;20026;-91
2022/01/16 00:49:19;;;;;;;89.50;33.85;;;3.50;89.60;;;;;;4978690;28;20034;-91
2022/01/16 00:51:45;;;;;;;74.72;33.00;;;3.40;89.60;;;;;;4978420;28;20033;-91
2022/01/16 00:54:10;;;;;;;77.18;33.20;;;3.40;89.70;;;;;;4962851;28;20030;-92
2022/01/16 00:56:36;;;;;;;73.80;33.58;;;3.50;89.80;;;;;;4963014;28;20123;-91
2022/01/16 00:59:02;;;;;;;95.40;35.47;;;3.50;89.80;;;;;;4975303;28;20349;-91
2022/01/16 01:01:27;;;;;;;74.43;33.92;;;3.50;89.70;;;;;;4975554;28;20079;-91
2022/01/16 01:03:53;;;;;;;65.75;31.02;;;3.50;89.60;;;;;;4979145;28;20080;-91
2022/01/16 01:06:19;;;;;;;79.35;33.95;;;3.50;89.70;;;;;;4999318;28;20034;-91
2022/01/16 01:08:44;;;;;;;71.82;33.13;;;3.50;89.70;;;;;;4979038;28;20027;-90
2022/01/16 01:11:15;;;;;;;85.53;35.60;;;3.50;89.70;;;;;;4986615;28;20034;-91
2022/01/16 01:16:27;;;;;;;82.60;36.38;;;3.40;89.70;;;;;;5001987;28;20041;-90
2022/01/16 01:18:53;;;;;;;76.97;34.15;;;3.40;89.80;;;;;;4997188;28;20046;-90
2022/01/16 01:21:28;;;;;;;76.30;36.22;;;3.40;89.90;;;;;;4996012;28;20040;-90
2022/01/16 01:23:55;;;;;;;72.30;34.00;;;3.40;90.00;;;;;;4981564;28;20030;-90
2022/01/16 01:26:26;;;;;;;79.15;34.35;;;3.40;90.00;;;;;;4996229;28;20393;-90
2022/01/16 01:28:52;;;;;;;93.70;37.03;;;3.40;90.00;;;;;;4997328;28;20026;-90
2022/01/16 01:31:18;;;;;;;63.83;32.70;;;3.40;90.00;;;;;;4980235;28;20076;-90
2022/01/16 01:33:43;;;;;;;94.10;31.92;;;3.50;90.00;;;;;;4963774;28;20124;-91
2022/01/16 01:36:09;;;;;;;73.18;34.40;;;3.40;89.90;;;;;;4964544;28;20053;-91
2022/01/16 01:38:35;;;;;;;75.03;32.42;;;3.40;89.80;;;;;;4966011;28;20113;-91
2022/01/16 01:41:00;;;;;;;65.00;28.90;;;3.40;89.90;;;;;;4996645;28;20238;-91
2022/01/16 01:51:32;;;;;;;58.67;28.63;;;3.40;89.90;;;;;;5015239;28;20045;-90
2022/01/16 01:54:00;;;;;;;62.22;29.75;;;3.40;89.90;;;;;;4996318;28;20108;-90
2022/01/16 01:56:27;;;;;;;78.88;29.50;;;3.40;90.00;;;;;;5014511;28;20053;-91
2022/01/16 01:58:58;;;;;;;55.88;29.55;;;3.30;90.00;;;;;;4980926;28;20018;-91
2022/01/16 02:01:25;;;;;;;59.63;28.52;;;3.40;90.00;;;;;;4997070;28;20072;-90
2022/01/16 02:03:51;;;;;;;62.55;28.17;;;3.40;90.00;;;;;;4994541;28;20107;-91
2022/01/16 02:06:26;;;;;;;87.90;33.45;;;3.40;90.00;;;;;;4980754;28;20034;-90
2022/01/16 02:08:58;;;;;;;103.63;32.33;;;3.40;89.90;;;;;;4991767;28;20026;-92
2022/01/16 02:11:28;;;;;;;122.70;34.80;;;3.40;89.90;;;;;;4996700;28;20481;-91
2022/01/16 02:14:06;;;;;;;64.03;29.55;;;3.30;89.80;;;;;;4999555;28;20084;-92
2022/01/16 02:28:02;;;;;;;71.22;30.40;;;3.20;90.10;;;;;;5003592;28;20079;-90
2022/01/16 02:35:26;;;;;;;61.10;29.75;;;3.10;90.10;;;;;;4997450;28;20069;-91
2022/01/16 02:37:52;;;;;;;61.05;28.85;;;3.10;90.10;;;;;;4980510;28;20374;-92
2022/01/16 02:40:22;;;;;;;58.78;28.60;;;3.10;90.20;;;;;;4980714;28;20045;-91
2022/01/16 02:42:50;;;;;;;100.40;34.33;;;3.10;90.20;;;;;;4981129;28;20029;-91
2022/01/16 02:45:28;;;;;;;61.97;29.73;;;3.20;90.20;;;;;;4996806;28;20034;-91
2022/01/16 02:47:56;;;;;;;61.08;28.08;;;3.20;90.20;;;;;;4996788;28;20109;-91
2022/01/16 02:50:23;;;;;;;66.15;28.80;;;3.20;90.30;;;;;;4996941;28;20496;-91
2022/01/16 02:52:49;;;;;;;75.75;30.77;;;3.20;90.30;;;;;;4979606;28;20026;-90
2022/01/16 02:55:16;;;;;;;62.85;28.80;;;3.30;90.30;;;;;;4980292;28;20022;-90
2022/01/16 02:57:41;;;;;;;62.33;30.30;;;3.30;90.30;;;;;;4980140;28;20548;-90
2022/01/16 03:00:08;;;;;;;85.05;29.73;;;3.30;90.20;;;;;;4964255;28;20201;-90
2022/01/16 03:02:34;;;;;;;71.95;29.92;;;3.30;90.20;;;;;;4966029;28;20026;-90
2022/01/16 03:05:00;;;;;;;71.15;30.33;;;3.30;90.20;;;;;;4979710;28;20104;-90
2022/01/16 03:07:26;;;;;;;61.78;29.77;;;3.30;90.20;;;;;;4995939;28;20033;-90
2022/01/16 03:12:38;;;;;;;97.93;32.25;;;3.30;90.30;;;;;;5019017;28;20160;-90
2022/01/16 03:15:06;;;;;;;70.00;30.02;;;3.30;90.30;;;;;;5012996;28;20469;-90
2022/01/16 03:17:52;;;;;;;135.23;34.25;;;3.20;90.30;;;;;;4980151;28;20022;-91
2022/01/16 03:23:02;;;;;;;87.35;30.15;;;3.20;90.30;;;;;;4989855;28;20131;-91
2022/01/16 03:25:28;;;;;;;107.88;31.00;;;3.20;90.40;;;;;;4979141;28;20452;-91
2022/01/16 03:27:54;;;;;;;71.38;30.58;;;3.20;90.40;;;;;;4978453;28;20397;-91
2022/01/16 03:30:19;;;;;;;73.90;30.73;;;3.20;90.40;;;;;;4995926;28;20022;-91
2022/01/16 03:32:45;;;;;;;93.90;30.63;;;3.20;90.50;;;;;;4979589;28;20026;-90
2022/01/16 03:35:11;;;;;;;91.07;30.05;;;3.20;90.50;;;;;;4979525;28;20117;-90
2022/01/16 03:37:36;;;;;;;65.93;29.15;;;3.30;90.60;;;;;;4995519;28;20030;-91
2022/01/16 03:40:05;;;;;;;66.60;28.52;;;3.30;90.60;;;;;;4975016;28;20041;-91
2022/01/16 03:42:33;;;;;;;80.88;29.13;;;3.30;90.60;;;;;;4985145;28;20033;-90
2022/01/16 03:45:00;;;;;;;61.53;27.77;;;3.30;90.90;;;;;;4978866;28;20860;-90
2022/01/16 03:47:26;;;;;;;62.35;26.85;;;3.30;90.60;;;;;;4979490;28;20474;-90
2022/01/16 03:49:51;;;;;;;70.60;26.10;;;3.40;90.60;;;;;;4979185;28;20032;-90
2022/01/16 03:52:17;;;;;;;58.63;27.73;;;3.40;90.60;;;;;;4963392;28;20030;-90
2022/01/16 03:54:43;;;;;;;70.78;29.85;;;3.40;90.60;;;;;;4978413;28;20073;-91
2022/01/16 03:57:08;;;;;;;71.43;28.88;;;3.40;90.60;;;;;;4978949;28;20065;-90
2022/01/16 03:59:34;;;;;;;142.65;33.35;;;3.40;90.60;;;;;;4978945;28;20095;-90
2022/01/16 04:02:00;;;;;;;69.13;30.25;;;3.40;90.60;;;;;;4978615;28;20048;-90
2022/01/16 04:04:26;;;;;;;78.97;29.33;;;3.40;90.60;;;;;;4995170;28;20152;-90
2022/01/16 04:06:52;;;;;;;102.97;29.98;;;3.40;90.70;;;;;;4978388;28;20018;-89
2022/01/16 04:09:17;;;;;;;75.53;30.80;;;3.40;90.70;;;;;;4978618;28;20030;-91
2022/01/16 04:12:03;;;;;;;77.80;29.70;;;3.40;90.70;;;;;;4978730;28;20053;-91
2022/01/16 04:17:18;;;;;;;68.72;29.33;;;3.40;90.70;;;;;;5022965;28;20040;-92
2022/01/16 04:19:45;;;;;;;77.40;29.25;;;3.40;90.70;;;;;;4978562;28;20053;-91
2022/01/16 04:22:11;;;;;;;70.32;28.63;;;3.40;90.70;;;;;;4995237;28;20037;-91
2022/01/16 04:24:37;;;;;;;71.13;29.40;;;3.40;90.70;;;;;;4978492;28;20034;-91
2022/01/16 04:27:03;;;;;;;76.05;30.75;;;3.40;90.80;;;;;;4994707;28;20499;-90
2022/01/16 04:29:29;;;;;;;86.07;30.02;;;3.40;90.70;;;;;;4978618;28;20497;-91
2022/01/16 04:31:56;;;;;;;80.45;33.83;;;3.40;90.80;;;;;;4994453;28;20018;-91
2022/01/16 04:34:21;;;;;;;85.22;31.95;;;3.40;90.80;;;;;;4994419;28;20034;-90
2022/01/16 04:36:47;;;;;;;72.53;30.10;;;3.40;90.70;;;;;;4978171;28;20684;-91
2022/01/16 04:39:16;;;;;;;74.13;30.67;;;3.40;90.80;;;;;;4979230;28;20057;-91
2022/01/16 04:44:27;;;;;;;85.28;34.22;;;3.50;90.80;;;;;;4968506;28;20452;-91
2022/01/16 04:46:54;;;;;;;76.20;33.05;;;3.50;90.70;;;;;;4965041;28;20026;-91
2022/01/16 04:49:20;;;;;;;87.32;33.35;;;3.50;90.70;;;;;;4998741;28;20093;-91
2022/01/16 04:51:46;;;;;;;93.97;35.35;;;3.50;90.80;;;;;;4982275;28;20038;-91
2022/01/16 04:54:12;;;;;;;76.47;32.85;;;3.50;90.80;;;;;;4998624;28;20485;-90
2022/01/16 04:56:38;;;;;;;92.00;36.70;;;3.50;90.70;;;;;;4982376;28;20139;-91
2022/01/16 04:59:03;;;;;;;71.18;31.17;;;3.50;90.70;;;;;;4982086;28;20042;-91
2022/01/16 05:01:30;;;;;;;78.50;34.20;;;3.50;90.70;;;;;;4965615;28;20079;-91
2022/01/16 05:03:55;;;;;;;72.25;32.13;;;3.50;90.70;;;;;;4982012;28;20026;-91
2022/01/16 05:06:22;;;;;;;75.00;33.10;;;3.60;90.80;;;;;;4998161;28;20392;-91
2022/01/16 05:08:48;;;;;;;74.35;32.60;;;3.60;90.70;;;;;;4998086;28;20081;-91
2022/01/16 05:11:16;;;;;;;69.05;33.03;;;3.60;90.70;;;;;;4998452;28;20034;-91
2022/01/16 05:19:14;;;;;;;76.78;34.78;;;3.60;90.70;;;;;;5008424;28;20068;-91
2022/01/16 05:22:03;;;;;;;74.85;35.42;;;3.60;90.70;;;;;;4995173;28;20472;-91
2022/01/16 05:24:33;;;;;;;76.10;35.53;;;3.60;90.70;;;;;;4966693;28;20424;-91
2022/01/16 05:26:59;;;;;;;71.25;33.38;;;3.60;90.70;;;;;;4978483;28;20064;-91
2022/01/16 05:29:25;;;;;;;77.07;37.28;;;3.60;90.70;;;;;;5010029;28;20061;-92
2022/01/16 05:31:50;;;;;;;77.10;37.45;;;3.60;90.60;;;;;;4981445;28;20037;-91
2022/01/16 05:34:18;;;;;;;73.75;34.63;;;3.60;90.60;;;;;;4982118;28;20030;-91
2022/01/16 05:36:45;;;;;;;77.30;35.40;;;3.60;90.70;;;;;;4997419;28;20041;-91
2022/01/16 05:39:11;;;;;;;67.40;34.05;;;3.60;90.70;;;;;;4997668;28;20034;-91
2022/01/16 05:41:37;;;;;;;77.28;38.13;;;3.60;90.70;;;;;;4997718;28;20040;-90
2022/01/16 05:44:03;;;;;;;68.80;35.00;;;3.60;90.70;;;;;;4997781;28;20026;-91
2022/01/16 05:46:28;;;;;;;75.55;34.28;;;3.70;90.80;;;;;;4981199;28;20033;-90
2022/01/16 05:48:54;;;;;;;85.80;37.42;;;3.70;90.80;;;;;;4997652;28;20034;-91
2022/01/16 05:51:20;;;;;;;78.55;37.42;;;3.70;90.80;;;;;;4964202;28;20038;-90
2022/01/16 05:53:46;;;;;;;82.78;39.13;;;3.70;90.70;;;;;;4997106;28;20060;-91
2022/01/16 05:56:12;;;;;;;77.47;38.35;;;3.70;90.70;;;;;;4996865;28;20030;-91
2022/01/16 05:58:40;;;;;;;78.60;37.47;;;3.80;90.70;;;;;;4981135;28;20061;-91
2022/01/16 06:01:05;;;;;;;77.18;37.28;;;3.70;90.70;;;;;;5014497;28;20018;-91
2022/01/16 06:03:31;;;;;;;77.35;37.53;;;3.70;90.80;;;;;;4979010;28;20080;-91
2022/01/16 06:05:57;;;;;;;75.35;37.88;;;3.70;90.70;;;;;;4981563;28;20022;-91
2022/01/16 06:08:23;;;;;;;75.22;37.53;;;3.80;90.80;;;;;;4980880;28;20073;-91
2022/01/16 06:10:48;;;;;;;83.13;40.15;;;3.80;90.80;;;;;;4980793;28;20047;-91
2022/01/16 06:13:14;;;;;;;81.72;40.47;;;3.80;90.70;;;;;;4980451;28;20037;-91
2022/01/16 06:15:40;;;;;;;97.07;44.00;;;3.80;90.70;;;;;;4981507;28;20045;-91
2022/01/16 06:18:07;;;;;;;87.57;43.35;;;3.80;90.60;;;;;;4980898;28;20100;-91
2022/01/16 06:20:33;;;;;;;86.95;42.72;;;3.80;90.50;;;;;;4980249;28;20439;-91
2022/01/16 06:23:00;;;;;;;90.15;41.58;;;3.70;90.50;;;;;;4996591;28;20030;-91
2022/01/16 06:25:26;;;;;;;85.97;42.10;;;3.70;90.60;;;;;;4998528;28;20022;-91
2022/01/16 06:27:52;;;;;;;83.75;42.15;;;3.70;90.60;;;;;;4987823;28;20030;-91
2022/01/16 06:30:19;;;;;;;87.68;43.40;;;3.70;90.60;;;;;;4996941;28;20134;-92
2022/01/16 06:32:45;;;;;;;93.32;45.10;;;3.70;90.90;;;;;;4980487;28;20030;-91
2022/01/16 06:35:13;;;;;;;93.10;44.08;;;3.70;90.60;;;;;;4964206;28;20042;-91
2022/01/16 06:37:39;;;;;;;83.82;42.28;;;3.70;90.70;;;;;;4996594;28;20060;-91
2022/01/16 06:40:06;;;;;;;101.63;47.08;;;3.70;90.70;;;;;;4980372;28;20022;-90
2022/01/16 06:42:32;;;;;;;91.47;42.83;;;3.70;90.70;;;;;;4980197;28;20519;-90
2022/01/16 06:44:58;;;;;;;92.90;44.90;;;3.70;90.70;;;;;;4980057;28;20037;-91
2022/01/16 06:47:24;;;;;;;92.00;44.45;;;3.70;90.70;;;;;;4980233;28;20029;-91
2022/01/16 06:49:49;;;;;;;89.93;43.13;;;3.70;90.70;;;;;;4980216;28;20030;-91
2022/01/16 06:52:15;;;;;;;92.53;45.78;;;3.70;90.70;;;;;;4996894;28;20034;-91
2022/01/16 06:54:41;;;;;;;92.50;45.40;;;3.70;90.60;;;;;;4980668;28;20038;-91
2022/01/16 06:57:08;;;;;;;86.60;43.47;;;3.80;90.60;;;;;;4996162;28;20028;-90
2022/01/16 06:59:38;;;;;;;113.88;52.83;;;3.70;90.60;;;;;;4980131;28;20346;-90
2022/01/16 07:02:04;;;;;;;92.15;45.38;;;3.70;90.60;;;;;;4995761;28;20018;-92
2022/01/16 07:04:30;;;;;;;94.60;44.38;;;3.70;90.60;;;;;;4976730;28;20034;-91
2022/01/16 07:06:56;;;;;;;89.95;46.17;;;3.70;90.70;;;;;;4965995;28;20048;-93
2022/01/16 07:09:21;;;;;;;87.15;44.92;;;3.70;90.70;;;;;;4997495;28;20030;-93
2022/01/16 07:11:47;;;;;;;86.05;42.70;;;3.70;90.70;;;;;;4981188;28;20034;-93
2022/01/16 07:14:13;;;;;;;88.28;43.78;;;3.70;90.80;;;;;;4981800;28;20040;-94
2022/01/16 07:16:38;;;;;;;101.60;48.55;;;3.70;90.80;;;;;;4981950;28;20038;-93
2022/01/16 07:19:04;;;;;;;95.25;49.65;;;3.70;90.70;;;;;;4981327;28;20133;-92
2022/01/16 07:21:30;;;;;;;91.72;47.20;;;3.70;90.70;;;;;;4980388;28;20061;-92
2022/01/16 07:23:55;;;;;;;91.03;46.78;;;3.70;90.80;;;;;;4979877;28;20029;-92
2022/01/16 07:26:21;;;;;;;86.22;45.42;;;3.70;90.80;;;;;;4968248;28;20022;-92
2022/01/16 07:28:47;;;;;;;91.43;47.95;;;3.70;90.80;;;;;;4996457;28;20022;-91
2022/01/16 07:31:13;;;;;;;88.00;46.65;;;3.80;90.90;;;;;;4977664;28;20034;-92
2022/01/16 07:33:39;;;;;;;81.65;44.75;;;3.80;90.90;;;;;;4991260;28;20133;-92
2022/01/16 07:36:05;;;;;;;83.72;44.85;;;3.80;90.90;;;;;;4980416;28;20053;-92
2022/01/16 07:38:31;;;;;;;107.45;51.97;;;3.80;90.90;;;;;;5016640;28;20464;-93
2022/01/16 07:40:57;;;;;;;92.13;48.55;;;3.80;90.90;;;;;;4975688;28;20018;-93
2022/01/16 07:43:23;;;;;;;86.65;46.40;;;3.80;90.90;;;;;;4976873;28;20019;-93
2022/01/16 07:45:49;;;;;;;80.85;44.20;;;3.80;90.90;;;;;;4993707;28;20025;-92
2022/01/16 07:48:15;;;;;;;79.53;44.72;;;3.80;90.90;;;;;;4964144;28;20040;-94
2022/01/16 07:50:41;;;;;;;85.03;45.22;;;3.90;90.90;;;;;;4979980;28;20111;-93
2022/01/16 07:53:08;;;;;;;79.60;43.75;;;3.80;90.90;;;;;;4979940;28;20045;-93
2022/01/16 07:55:34;;;;;;;86.70;44.90;;;3.90;91.00;;;;;;4996234;28;20034;-93
2022/01/16 07:58:00;;;;;;;86.55;46.42;;;3.90;91.00;;;;;;5006366;28;20480;-93
2022/01/16 08:00:27;;;;;;;84.57;45.38;;;3.90;91.00;;;;;;4998766;28;20076;-95
2022/01/16 08:02:53;;;;;;;84.13;45.13;;;3.90;91.00;;;;;;4965283;28;20052;-93
2022/01/16 08:05:20;;;;;;;74.35;41.55;;;3.90;91.00;;;;;;4995856;28;20038;-94
2022/01/16 08:07:45;;;;;;;79.10;42.47;;;3.90;91.00;;;;;;4999977;28;20030;-93
2022/01/16 08:10:12;;;;;;;72.10;41.40;;;3.90;91.00;;;;;;4979753;28;20037;-93
2022/01/16 08:12:38;;;;;;;68.68;40.72;;;4.00;91.10;;;;;;4996391;28;20029;-93
2022/01/16 08:15:05;;;;;;;67.80;39.95;;;4.00;91.10;;;;;;5015204;28;20025;-93
2022/01/16 08:17:31;;;;;;;74.00;41.47;;;4.00;91.10;;;;;;4996252;28;20026;-94
2022/01/16 08:19:57;;;;;;;67.47;40.78;;;4.00;91.10;;;;;;4980076;28;20049;-92
2022/01/16 08:22:23;;;;;;;72.60;40.65;;;4.00;91.10;;;;;;4995496;28;20022;-93
2022/01/16 08:24:48;;;;;;;74.15;41.60;;;4.10;91.10;;;;;;4996461;28;20033;-93
2022/01/16 08:27:15;;;;;;;74.72;41.80;;;4.10;91.10;;;;;;4980567;28;20034;-94
2022/01/16 08:29:42;;;;;;;64.93;37.92;;;4.10;91.10;;;;;;4996245;28;20025;-92
2022/01/16 08:32:08;;;;;;;69.50;40.53;;;4.10;91.10;;;;;;4980140;28;20034;-89
2022/01/16 08:34:34;;;;;;;64.95;38.22;;;4.20;91.10;;;;;;4991733;28;20129;-89
2022/01/16 08:36:59;;;;;;;64.95;38.17;;;4.20;91.10;;;;;;4979125;28;20114;-92
2022/01/16 08:39:25;;;;;;;66.85;39.10;;;4.20;91.10;;;;;;4978682;28;20038;-91
2022/01/16 08:41:51;;;;;;;64.00;39.70;;;4.20;91.10;;;;;;4979724;28;20057;-90
2022/01/16 08:44:19;;;;;;;74.80;43.60;;;4.20;91.10;;;;;;4994772;28;20112;-90
2022/01/16 08:46:45;;;;;;;63.17;37.92;;;4.30;91.40;;;;;;4963020;28;20111;-91
2022/01/16 08:49:11;;;;;;;65.43;38.50;;;4.30;91.10;;;;;;4960911;28;20400;-88
2022/01/16 08:51:37;;;;;;;60.97;37.55;;;4.30;91.10;;;;;;4962717;28;20037;-88
2022/01/16 08:54:03;;;;;;;64.43;40.15;;;4.30;91.10;;;;;;4987846;28;20041;-88
2022/01/16 08:56:28;;;;;;;62.35;36.78;;;4.40;91.40;;;;;;4976356;28;20246;-90
2022/01/16 08:58:54;;;;;;;61.13;38.00;;;4.40;91.10;;;;;;4976294;28;20112;-90
2022/01/16 09:01:20;;;;;;;62.00;38.55;;;4.40;91.10;;;;;;4975293;28;20036;-89
2022/01/16 09:03:47;;;;;;;63.17;38.17;;;4.40;91.10;;;;;;4991645;28;20149;-90
2022/01/16 09:06:13;;;;;;;65.32;37.97;;;4.40;91.10;;;;;;4973571;28;20524;-90
2022/01/16 09:08:38;;;;;;;56.10;35.42;;;4.40;91.10;;;;;;4980949;28;20674;-90
2022/01/16 09:11:05;;;;;;;55.83;36.05;;;4.50;91.10;;;;;;4961883;28;20096;-90
2022/01/16 09:13:31;;;;;;;59.92;35.85;;;4.50;91.10;;;;;;4994882;28;20022;-90
2022/01/16 09:15:57;;;;;;;56.17;34.15;;;4.50;91.10;;;;;;4977767;28;20046;-90
2022/01/16 09:18:23;;;;;;;55.17;32.83;;;4.50;91.00;;;;;;4993671;28;20030;-90
2022/01/16 09:20:49;;;;;;;51.63;32.05;;;4.60;91.10;;;;;;4977591;28;20101;-90
2022/01/16 09:23:15;;;;;;;59.70;35.70;;;4.60;91.30;;;;;;4993372;28;20065;-90
2022/01/16 09:25:41;;;;;;;56.47;33.58;;;4.60;91.00;;;;;;4978620;28;20091;-89
2022/01/16 09:28:06;;;;;;;53.47;33.40;;;4.70;91.10;;;;;;4978032;28;20022;-89
2022/01/16 09:30:33;;;;;;;48.88;30.60;;;4.70;91.10;;;;;;4987701;28;20033;-89
2022/01/16 09:32:59;;;;;;;49.60;31.27;;;4.70;91.00;;;;;;4964592;28;20026;-89
2022/01/16 09:35:26;;;;;;;49.58;33.47;;;4.70;91.00;;;;;;4997008;28;20157;-89
2022/01/16 09:37:52;;;;;;;54.78;33.70;;;4.80;91.00;;;;;;4997628;28;20026;-90
2022/01/16 09:40:20;;;;;;;51.33;31.75;;;4.80;91.00;;;;;;4978687;28;20030;-90
2022/01/16 09:42:46;;;;;;;50.50;32.45;;;4.80;91.00;;;;;;5000460;28;20369;-90
2022/01/16 09:45:15;;;;;;;51.17;30.65;;;4.90;91.00;;;;;;5000871;28;20492;-90
2022/01/16 09:47:43;;;;;;;56.80;33.63;;;4.90;91.00;;;;;;4997046;28;20030;-90
2022/01/16 09:50:10;;;;;;;54.45;32.88;;;4.90;91.00;;;;;;4994075;28;20031;-89
2022/01/16 09:52:41;;;;;;;53.45;33.50;;;4.90;91.00;;;;;;4993056;28;20042;-89
2022/01/16 09:55:08;;;;;;;48.38;30.65;;;5.00;91.00;;;;;;4981381;28;20033;-90
2022/01/16 09:57:34;;;;;;;47.10;30.98;;;5.00;91.00;;;;;;4996562;28;20042;-89
2022/01/16 10:00:00;;;;;;;60.47;34.05;;;5.00;91.00;;;;;;4980631;28;20030;-90
2022/01/16 10:02:26;;;;;;;53.85;32.47;;;5.00;91.00;;;;;;4980607;28;20048;-90
2022/01/16 10:04:55;;;;;;;53.80;32.47;;;5.10;91.00;;;;;;5014394;28;20105;-91
2022/01/16 10:07:21;;;;;;;56.25;32.90;;;5.10;91.00;;;;;;4965532;28;20077;-90
2022/01/16 10:10:09;;;;;;;54.85;33.10;;;5.10;91.00;;;;;;4961700;28;20379;-89
2022/01/16 10:12:40;;;;;;;57.83;32.72;;;5.20;91.10;;;;;;4996602;28;20057;-90
2022/01/16 10:15:16;;;;;;;56.70;33.42;;;5.20;91.10;;;;;;4965627;28;20030;-90
2022/01/16 10:17:50;;;;;;;58.97;33.15;;;5.20;91.20;;;;;;4995102;28;20033;-89
2022/01/16 10:20:16;;;;;;;58.03;33.55;;;5.20;91.20;;;;;;4996219;28;20045;-90
2022/01/16 10:23:00;;;;;;;61.28;34.25;;;5.20;91.20;;;;;;4995956;28;20018;-89
2022/01/16 10:25:45;;;;;;;54.80;32.75;;;5.20;91.30;;;;;;4980608;28;20026;-90
2022/01/16 10:28:22;;;;;;;62.08;34.15;;;5.30;91.30;;;;;;5011275;28;20484;-90
2022/01/16 10:30:54;;;;;;;66.55;34.95;;;5.30;91.40;;;;;;5000210;28;20022;-92
2022/01/16 10:33:23;;;;;;;62.13;34.35;;;5.30;91.40;;;;;;4986179;28;20448;-92
2022/01/16 10:35:52;;;;;;;69.10;38.92;;;5.30;91.40;;;;;;4997136;28;20042;-92
2022/01/16 10:38:21;;;;;;;70.45;35.85;;;5.30;91.40;;;;;;4996532;28;20109;-91
2022/01/16 10:40:50;;;;;;;75.55;39.45;;;5.30;91.40;;;;;;4996910;28;20030;-90
2022/01/16 10:43:21;;;;;;;76.60;39.03;;;5.40;91.50;;;;;;4980664;28;20030;-91
2022/01/16 10:45:51;;;;;;;71.28;35.95;;;5.40;91.50;;;;;;4996263;28;20022;-90
2022/01/16 10:48:23;;;;;;;72.53;37.67;;;5.40;91.50;;;;;;4996025;28;20018;-91
2022/01/16 10:50:50;;;;;;;74.32;38.65;;;5.40;91.50;;;;;;4980064;28;20038;-90
2022/01/16 10:53:19;;;;;;;77.03;38.95;;;5.40;91.40;;;;;;4995493;28;20033;-91
2022/01/16 10:55:47;;;;;;;76.43;39.35;;;5.40;91.40;;;;;;5011764;28;20057;-91
2022/01/16 10:58:16;;;;;;;67.15;37.00;;;5.50;91.50;;;;;;4980262;28;20033;-92
2022/01/16 11:00:44;;;;;;;73.68;39.90;;;5.50;91.40;;;;;;4996096;28;20396;-91
2022/01/16 11:03:13;;;;;;;78.45;39.28;;;5.50;91.40;;;;;;4995744;28;20072;-89
2022/01/16 11:05:43;;;;;;;77.13;39.85;;;5.50;91.40;;;;;;4995654;28;20045;-89
2022/01/16 11:08:15;;;;;;;78.75;40.13;;;5.50;91.40;;;;;;4995413;28;20390;-89
2022/01/16 11:10:46;;;;;;;81.60;40.10;;;5.50;91.40;;;;;;4976365;28;20065;-89
2022/01/16 11:13:16;;;;;;;85.13;42.38;;;5.50;91.40;;;;;;4992000;28;20079;-88
2022/01/16 11:15:44;;;;;;;87.28;42.92;;;5.50;91.40;;;;;;4996083;28;20424;-90
2022/01/16 11:18:12;;;;;;;83.15;40.03;;;5.50;91.40;;;;;;4995538;28;20037;-90
2022/01/16 11:20:39;;;;;;;79.43;40.63;;;5.50;91.40;;;;;;4993413;28;20038;-91
2022/01/16 11:23:15;;;;;;;93.60;42.20;;;5.50;91.40;;;;;;4996070;28;20080;-90
2022/01/16 11:25:43;;;;;;;80.00;40.95;;;5.50;91.40;;;;;;4995324;28;20018;-90
2022/01/16 11:28:13;;;;;;;85.88;43.28;;;5.50;91.40;;;;;;4995409;28;20022;-90
2022/01/16 11:30:42;;;;;;;92.40;45.90;;;5.60;91.50;;;;;;4996451;28;20507;-89
2022/01/16 11:33:08;;;;;;;80.35;43.00;;;5.50;91.40;;;;;;5012640;28;20121;-90
2022/01/16 11:35:40;;;;;;;90.90;44.80;;;5.50;91.40;;;;;;4995865;28;20053;-90
2022/01/16 11:38:06;;;;;;;97.28;43.88;;;5.50;91.40;;;;;;5013165;28;20048;-90
2022/01/16 11:40:45;;;;;;;95.75;44.97;;;5.60;91.40;;;;;;4995560;28;20060;-90
2022/01/16 11:43:23;;;;;;;92.95;44.03;;;5.60;91.40;;;;;;5011510;28;20030;-90
2022/01/16 11:45:55;;;;;;;92.80;44.70;;;5.60;91.40;;;;;;5011752;28;20018;-90
2022/01/16 11:48:34;;;;;;;91.10;43.42;;;5.60;91.40;;;;;;5004098;28;20037;-89
2022/01/16 11:51:01;;;;;;;88.22;40.75;;;5.60;91.40;;;;;;5017885;28;20079;-90
2022/01/16 11:53:57;;;;;;;92.43;43.53;;;5.60;91.40;;;;;;4999213;28;20041;-91
2022/01/16 11:56:41;;;;;;;85.13;41.22;;;5.60;91.40;;;;;;4998826;28;20602;-90
2022/01/16 11:59:22;;;;;;;95.53;45.42;;;5.60;91.40;;;;;;4976389;28;20073;-91
2022/01/16 12:02:08;;;;;;;91.30;44.03;;;5.60;91.30;;;;;;5000464;28;20121;-90
2022/01/16 12:04:34;;;;;;;103.38;45.17;;;5.60;91.50;;;;;;4995480;28;20042;-91
2022/01/16 12:07:13;;;;;;;92.32;41.35;;;5.60;91.30;;;;;;4995434;28;20026;-90
2022/01/16 12:09:46;;;;;;;98.50;42.53;;;5.70;91.30;;;;;;5012086;28;20547;-91
2022/01/16 12:12:11;;;;;;;93.18;42.55;;;5.70;91.30;;;;;;5011812;28;20075;-90
2022/01/16 12:14:59;;;;;;;97.00;42.65;;;5.60;91.30;;;;;;5011551;28;20034;-90
2022/01/16 12:17:38;;;;;;;101.30;43.38;;;5.70;91.30;;;;;;4994964;28;20049;-90
2022/01/16 12:20:10;;;;;;;92.10;41.72;;;5.70;91.20;;;;;;4994931;28;20132;-90
2022/01/16 12:22:44;;;;;;;91.82;42.15;;;5.70;91.20;;;;;;5011013;28;20053;-90
2022/01/16 12:25:37;;;;;;;95.38;42.67;;;5.70;91.20;;;;;;5011025;28;20112;-91
2022/01/16 12:28:08;;;;;;;91.18;38.97;;;5.70;91.20;;;;;;5011439;28;20026;-90
2022/01/16 12:30:59;;;;;;;97.63;41.45;;;5.70;91.20;;;;;;5011456;28;20120;-90
2022/01/16 12:33:26;;;;;;;91.10;41.28;;;5.70;91.20;;;;;;5012908;28;20033;-90
2022/01/16 12:35:51;;;;;;;105.53;43.40;;;5.70;91.10;;;;;;5011860;28;20026;-91
2022/01/16 12:38:22;;;;;;;109.00;44.33;;;5.70;91.20;;;;;;5012222;28;20118;-91
2022/01/16 12:41:16;;;;;;;94.45;42.05;;;5.80;91.20;;;;;;5012734;28;20033;-91
2022/01/16 12:43:49;;;;;;;98.97;41.55;;;5.80;91.10;;;;;;4984127;28;20034;-92
2022/01/16 12:46:20;;;;;;;95.78;41.53;;;5.80;91.20;;;;;;4993931;28;20025;-91
2022/01/16 12:48:51;;;;;;;90.97;40.83;;;5.80;91.20;;;;;;4995291;28;20030;-91
2022/01/16 12:51:18;;;;;;;94.20;42.03;;;5.80;91.20;;;;;;4994683;28;20029;-90
2022/01/16 12:53:48;;;;;;;94.38;41.50;;;5.80;91.20;;;;;;4995212;28;20512;-91
2022/01/16 12:56:29;;;;;;;100.63;42.15;;;5.90;91.20;;;;;;4995340;28;20362;-91
2022/01/16 12:59:20;;;;;;;99.28;42.05;;;5.90;91.20;;;;;;4994950;28;20125;-90
2022/01/16 13:01:54;;;;;;;114.53;45.28;;;5.90;91.20;;;;;;4987081;28;20025;-90
2022/01/16 13:04:23;;;;;;;105.60;42.42;;;6.00;91.20;;;;;;4998222;28;20169;-91
2022/01/16 13:06:50;;;;;;;100.15;42.08;;;6.00;91.20;;;;;;4998669;28;20512;-91
2022/01/16 13:09:15;;;;;;;90.80;42.38;;;6.00;91.20;;;;;;4966567;28;20037;-90
2022/01/16 13:11:44;;;;;;;97.30;44.13;;;6.00;91.20;;;;;;4998022;28;20370;-91
2022/01/16 13:14:18;;;;;;;99.97;44.15;;;6.00;91.30;;;;;;4998552;28;20038;-91
2022/01/16 13:16:47;;;;;;;105.47;43.22;;;6.00;91.30;;;;;;4998862;28;20145;-91
2022/01/16 13:19:24;;;;;;;98.22;44.25;;;6.10;91.30;;;;;;4997139;28;20048;-87
2022/01/16 13:22:11;;;;;;;99.13;44.63;;;6.10;91.40;;;;;;5008146;28;20022;-87
2022/01/16 13:24:39;;;;;;;98.28;42.78;;;6.10;91.40;;;;;;4979402;28;20042;-88
2022/01/16 13:27:08;;;;;;;91.93;42.22;;;6.10;91.30;;;;;;4988443;28;20397;-87